Time;durP1;ratioP1;P1;durP2;ratioP2;P2;SDS_P1;SDS_P2;PMS_P1;PMS_P2;Temp;Humidity;BMP_temperature;BMP_pressure;BME280_temperature;BME280_humidity;BME280_pressure;Samples;Min_cycle;Max_cycle;Signal;HPM_P1;HPM_P2
2022/10/17 00:00:01;;;;;;;41.17;23.88;;;;;;;15.86;100.00;101549.53;4937594;29;20039;-85
2022/10/17 00:02:26;;;;;;;38.92;22.90;;;;;;;15.90;100.00;101550.03;4937718;29;20036;-84
2022/10/17 00:04:55;;;;;;;38.95;23.35;;;;;;;15.85;100.00;101547.84;4937665;29;20087;-86
2022/10/17 00:07:20;;;;;;;41.58;23.40;;;;;;;15.98;100.00;101547.31;4937553;29;20039;-85
2022/10/17 00:09:46;;;;;;;36.42;23.55;;;;;;;16.02;100.00;101545.97;4937738;29;20408;-86
2022/10/17 00:12:12;;;;;;;36.53;22.85;;;;;;;15.92;100.00;101540.81;4938073;29;20448;-86
2022/10/17 00:14:38;;;;;;;41.08;24.30;;;;;;;15.82;100.00;101542.84;4941364;29;20071;-84
2022/10/17 00:17:03;;;;;;;36.08;22.25;;;;;;;15.76;100.00;101538.19;4940323;29;20520;-85
2022/10/17 00:19:29;;;;;;;39.45;24.08;;;;;;;15.73;100.00;101549.22;4940341;29;20048;-85
2022/10/17 00:21:54;;;;;;;39.58;24.45;;;;;;;15.72;100.00;101542.22;4941277;29;20045;-86
2022/10/17 00:24:20;;;;;;;42.90;23.80;;;;;;;15.95;100.00;101542.31;4941151;29;20036;-86
2022/10/17 00:26:46;;;;;;;40.25;24.17;;;;;;;16.07;100.00;101551.66;4941122;29;20492;-87
2022/10/17 00:29:11;;;;;;;39.58;22.85;;;;;;;16.16;100.00;101547.09;4940238;29;20031;-86
2022/10/17 00:31:37;;;;;;;34.53;22.25;;;;;;;16.04;100.00;101547.44;4941625;29;20123;-87
2022/10/17 00:34:03;;;;;;;38.58;22.13;;;;;;;16.03;100.00;101550.31;4939678;29;20548;-85
2022/10/17 00:36:29;;;;;;;37.25;21.70;;;;;;;16.10;100.00;101553.13;4940778;29;20040;-87
2022/10/17 00:38:57;;;;;;;36.50;22.17;;;;;;;16.23;100.00;101543.56;4939532;29;20508;-86
2022/10/17 00:41:27;;;;;;;38.28;22.45;;;;;;;16.11;100.00;101552.13;4939564;29;20081;-85
2022/10/17 00:43:59;;;;;;;39.55;22.75;;;;;;;16.12;100.00;101553.78;4940624;29;20042;-85
2022/10/17 00:46:31;;;;;;;42.17;22.90;;;;;;;16.29;100.00;101556.22;4940696;29;20134;-86
2022/10/17 00:49:02;;;;;;;36.10;21.90;;;;;;;16.37;100.00;101563.41;4940790;29;20410;-85
2022/10/17 00:51:49;;;;;;;38.80;23.83;;;;;;;15.98;100.00;101564.19;4939399;29;20020;-86
2022/10/17 00:54:18;;;;;;;40.35;23.63;;;;;;;15.65;100.00;101551.91;4939319;29;20043;-87
2022/10/17 00:56:46;;;;;;;38.03;23.08;;;;;;;15.48;100.00;101558.28;4937097;29;20047;-86
2022/10/17 00:59:13;;;;;;;42.88;24.63;;;;;;;15.33;100.00;101554.59;4938369;29;20449;-86
2022/10/17 01:01:41;;;;;;;46.00;24.67;;;;;;;15.35;100.00;101560.59;4938742;29;20040;-86
2022/10/17 01:04:08;;;;;;;44.95;26.00;;;;;;;15.41;100.00;101557.28;4938616;29;20035;-87
2022/10/17 01:06:33;;;;;;;40.55;24.42;;;;;;;15.29;100.00;101555.91;4938121;29;20036;-85
2022/10/17 01:08:59;;;;;;;42.28;24.23;;;;;;;15.18;100.00;101554.41;4938505;29;21116;-87
2022/10/17 01:11:25;;;;;;;46.38;25.63;;;;;;;14.93;100.00;101548.25;4939150;29;20091;-87
2022/10/17 01:14:09;;;;;;;39.67;24.75;;;;;;;14.79;100.00;101551.56;4939093;29;20027;-88
2022/10/17 01:16:47;;;;;;;51.00;26.73;;;;;;;14.68;100.00;101546.50;4937925;29;20095;-87
2022/10/17 01:19:19;;;;;;;44.78;27.00;;;;;;;14.71;100.00;101546.22;4936478;29;20099;-87
2022/10/17 01:22:20;;;;;;;43.00;24.55;;;;;;;14.69;100.00;101558.88;4936702;29;20036;-88
2022/10/17 01:25:04;;;;;;;43.92;25.55;;;;;;;14.74;100.00;101556.56;4935474;29;20058;-87
2022/10/17 01:27:55;;;;;;;46.10;25.52;;;;;;;14.93;100.00;101556.25;4920993;29;20043;-87
2022/10/17 01:30:40;;;;;;;43.53;24.70;;;;;;;14.85;100.00;101556.22;4938139;29;20538;-85
2022/10/17 01:33:53;;;;;;;43.95;25.98;;;;;;;14.86;100.00;101552.56;4936436;29;20028;-87
2022/10/17 01:36:38;;;;;;;46.72;26.40;;;;;;;14.95;100.00;101558.75;4931142;29;20097;-85
2022/10/17 01:39:09;;;;;;;42.17;25.10;;;;;;;15.11;100.00;101547.25;4936227;29;20040;-86
2022/10/17 01:41:38;;;;;;;45.10;24.73;;;;;;;15.07;100.00;101548.59;4936566;29;20040;-87
2022/10/17 01:44:12;;;;;;;37.50;23.85;;;;;;;15.21;100.00;101550.59;4936210;29;20052;-88
2022/10/17 01:46:40;;;;;;;39.45;24.13;;;;;;;15.17;100.00;101555.44;4937472;29;20107;-85
2022/10/17 01:49:10;;;;;;;41.58;23.80;;;;;;;15.25;100.00;101549.25;4936338;29;20074;-85
2022/10/17 01:51:48;;;;;;;43.53;25.27;;;;;;;15.30;100.00;101550.44;4920836;29;20437;-85
2022/10/17 01:54:41;;;;;;;44.75;24.90;;;;;;;15.26;100.00;101551.75;4936234;29;20036;-86
2022/10/17 01:57:13;;;;;;;38.40;23.52;;;;;;;15.20;100.00;101546.25;4920210;29;20495;-86
2022/10/17 01:59:43;;;;;;;43.60;24.27;;;;;;;15.16;100.00;101560.94;4935924;29;20490;-86
2022/10/17 02:02:10;;;;;;;36.72;24.33;;;;;;;15.20;100.00;101554.25;4936139;29;20039;-86
2022/10/17 02:04:36;;;;;;;43.05;23.38;;;;;;;15.25;100.00;101554.59;4937340;29;20467;-88
2022/10/17 02:07:11;;;;;;;38.05;23.73;;;;;;;15.27;100.00;101557.94;4937105;29;20032;-87
2022/10/17 02:09:37;;;;;;;35.55;23.00;;;;;;;15.34;100.00;101569.63;4937138;29;20471;-87
2022/10/17 02:12:29;;;;;;;43.15;24.33;;;;;;;15.25;100.00;101557.25;4935825;29;20245;-86
2022/10/17 02:15:16;;;;;;;40.13;24.08;;;;;;;15.20;100.00;101556.94;4935741;29;20045;-86
2022/10/17 02:18:11;;;;;;;36.55;22.55;;;;;;;15.30;100.00;101560.28;4935747;29;20040;-86
2022/10/17 02:20:55;;;;;;;47.08;24.45;;;;;;;15.25;100.00;101566.09;4938002;29;20198;-85
2022/10/17 02:23:32;;;;;;;36.58;22.92;;;;;;;15.21;100.00;101555.94;4937832;29;20401;-84
2022/10/17 02:26:24;;;;;;;46.17;24.25;;;;;;;15.15;100.00;101559.25;4950047;29;20031;-83
2022/10/17 02:29:16;;;;;;;36.53;23.52;;;;;;;15.35;100.00;101563.25;4936272;29;20042;-87
2022/10/17 02:31:48;;;;;;;39.92;23.95;;;;;;;15.21;100.00;101575.44;4930568;29;20119;-85
2022/10/17 02:38:05;;;;;;;46.63;24.60;;;;;;;15.30;100.00;101563.78;4949832;29;20086;-85
2022/10/17 02:40:32;;;;;;;39.53;24.33;;;;;;;14.96;100.00;101573.75;4960188;29;20036;-86
2022/10/17 02:42:59;;;;;;;44.20;26.42;;;;;;;14.89;100.00;101576.25;4936431;29;20462;-86
2022/10/17 02:45:34;;;;;;;47.55;26.35;;;;;;;14.73;100.00;101573.56;4936177;29;20134;-87
2022/10/17 02:48:07;;;;;;;51.67;27.75;;;;;;;14.66;100.00;101569.03;4937562;29;20040;-85
2022/10/17 02:50:44;;;;;;;50.10;26.83;;;;;;;14.54;100.00;101571.19;4936941;29;20123;-86
2022/10/17 02:53:18;;;;;;;53.10;27.52;;;;;;;14.41;100.00;101579.66;4936872;29;20410;-86
2022/10/17 02:55:55;;;;;;;47.20;27.98;;;;;;;14.36;100.00;101578.44;4936337;29;20055;-85
2022/10/17 02:58:29;;;;;;;46.65;27.13;;;;;;;14.35;100.00;101576.78;4938123;29;20039;-87
2022/10/17 03:00:54;;;;;;;45.22;27.85;;;;;;;14.59;100.00;101584.00;4936932;29;20036;-86
2022/10/17 03:03:26;;;;;;;46.70;27.83;;;;;;;14.44;100.00;101586.47;4935418;29;20504;-86
2022/10/17 03:05:53;;;;;;;50.33;27.10;;;;;;;14.37;100.00;101586.28;4935531;29;20043;-87
2022/10/17 03:08:22;;;;;;;51.55;29.63;;;;;;;14.43;100.00;101587.47;4920144;29;20046;-88
2022/10/17 03:10:49;;;;;;;53.63;29.23;;;;;;;14.38;100.00;101581.78;4938013;29;20070;-87
2022/10/17 03:13:16;;;;;;;50.08;28.85;;;;;;;14.53;100.00;101579.34;4935471;29;20032;-84
2022/10/17 03:15:42;;;;;;;50.75;28.02;;;;;;;14.42;100.00;101578.63;4936472;29;20032;-87
2022/10/17 03:18:08;;;;;;;47.47;28.10;;;;;;;14.54;100.00;101586.34;4935387;29;20067;-86
2022/10/17 03:20:34;;;;;;;53.78;29.10;;;;;;;14.53;100.00;101580.16;4935586;29;20043;-85
2022/10/17 03:22:59;;;;;;;48.53;28.77;;;;;;;14.53;100.00;101580.16;4935147;29;20044;-86
2022/10/17 03:25:26;;;;;;;50.95;28.58;;;;;;;14.62;100.00;101584.53;4936003;29;20035;-86
2022/10/17 03:27:51;;;;;;;48.50;28.30;;;;;;;14.64;100.00;101587.88;4935824;29;20509;-86
2022/10/17 03:30:18;;;;;;;56.42;31.15;;;;;;;14.63;100.00;101591.53;4936329;29;20023;-87
2022/10/17 03:32:43;;;;;;;50.10;30.13;;;;;;;14.71;100.00;101588.91;4936380;29;20109;-86
2022/10/17 03:35:09;;;;;;;54.25;31.70;;;;;;;14.73;100.00;101591.41;4935647;29;20049;-85
2022/10/17 03:37:36;;;;;;;54.33;30.50;;;;;;;14.86;100.00;101589.94;4934665;29;20048;-85
2022/10/17 03:40:02;;;;;;;54.42;31.08;;;;;;;14.73;100.00;101602.06;4934945;29;20182;-84
2022/10/17 03:42:30;;;;;;;51.95;30.25;;;;;;;14.79;100.00;101602.25;4935053;29;20043;-86
2022/10/17 03:44:56;;;;;;;61.85;32.40;;;;;;;14.86;100.00;101603.28;4935019;29;20035;-86
2022/10/17 03:47:21;;;;;;;59.42;31.70;;;;;;;14.82;100.00;101601.94;4938024;29;20040;-85
2022/10/17 03:49:48;;;;;;;54.67;32.45;;;;;;;14.88;100.00;101605.81;4938551;29;20111;-84
2022/10/17 03:52:14;;;;;;;64.50;34.42;;;;;;;14.71;100.00;101612.94;4939037;29;20036;-84
2022/10/17 03:54:40;;;;;;;60.13;32.90;;;;;;;14.69;100.00;101612.22;4922834;29;20040;-84
2022/10/17 03:57:06;;;;;;;59.88;33.25;;;;;;;14.90;100.00;101609.97;4939109;29;20067;-85
2022/10/17 03:59:32;;;;;;;54.67;31.80;;;;;;;14.98;100.00;101607.28;4938368;29;20067;-86
2022/10/17 04:02:03;;;;;;;60.97;33.15;;;;;;;15.00;100.00;101616.00;4939260;29;20027;-86
2022/10/17 04:04:29;;;;;;;68.35;35.13;;;;;;;14.98;100.00;101612.63;4939943;29;20393;-88
2022/10/17 04:06:54;;;;;;;69.40;33.45;;;;;;;14.83;100.00;101624.97;4939939;29;20481;-86
2022/10/17 04:09:20;;;;;;;58.78;34.75;;;;;;;14.79;100.00;101628.09;4938499;29;20047;-87
2022/10/17 04:12:00;;;;;;;61.28;33.55;;;;;;;14.98;100.00;101628.66;4925206;29;20042;-86
2022/10/17 04:14:25;;;;;;;64.45;32.75;;;;;;;15.08;100.00;101628.50;4939012;29;20111;-86
2022/10/17 04:16:52;;;;;;;62.08;34.03;;;;;;;15.09;100.00;101624.00;4939994;29;20389;-87
2022/10/17 04:19:19;;;;;;;61.10;33.38;;;;;;;15.05;100.00;101630.69;4944826;29;20035;-85
2022/10/17 04:21:46;;;;;;;69.18;34.90;;;;;;;14.79;100.00;101638.78;4958335;29;20190;-87
2022/10/17 04:24:13;;;;;;;72.75;36.88;;;;;;;14.60;100.00;101639.06;4943304;29;20019;-83
2022/10/17 04:26:48;;;;;;;70.05;37.70;;;;;;;14.56;100.00;101643.03;4957455;29;20070;-87
2022/10/17 04:29:14;;;;;;;70.68;37.95;;;;;;;14.48;100.00;101649.19;4957015;29;20130;-82
2022/10/17 04:31:41;;;;;;;66.45;37.65;;;;;;;14.34;100.00;101647.13;4956783;29;20027;-85
2022/10/17 04:34:29;;;;;;;69.15;36.88;;;;;;;14.26;100.00;101645.19;4964133;28;20105;-84
2022/10/17 04:36:55;;;;;;;63.88;35.90;;;;;;;14.20;100.00;101648.50;4957132;29;20444;-87
2022/10/17 04:39:20;;;;;;;70.18;35.92;;;;;;;14.30;100.00;101657.22;4956950;29;20047;-87
2022/10/17 04:41:46;;;;;;;69.32;38.90;;;;;;;14.10;100.00;101657.59;4957532;29;20117;-84
2022/10/17 04:44:12;;;;;;;67.32;36.83;;;;;;;14.14;100.00;101653.63;4958816;29;20122;-86
2022/10/17 04:46:41;;;;;;;70.63;38.83;;;;;;;14.08;100.00;101656.94;4957136;29;20050;-86
2022/10/17 04:49:08;;;;;;;76.15;39.30;;;;;;;14.23;100.00;101664.19;4956604;29;20039;-86
2022/10/17 04:51:34;;;;;;;74.93;39.80;;;;;;;14.23;100.00;101666.00;4957841;29;20040;-88
2022/10/17 04:54:16;;;;;;;71.22;37.97;;;;;;;14.22;100.00;101675.84;4952007;29;20040;-87
2022/10/17 04:56:43;;;;;;;72.90;40.22;;;;;;;14.23;100.00;101674.00;4934912;29;20044;-90
2022/10/17 04:59:09;;;;;;;81.40;40.45;;;;;;;14.14;100.00;101680.28;4944284;29;20036;-89
2022/10/17 05:01:37;;;;;;;81.97;40.67;;;;;;;13.99;100.00;101680.00;4921744;29;20545;-83
2022/10/17 05:04:03;;;;;;;81.13;37.75;;;;;;;14.00;100.00;101676.38;4938004;29;20127;-83
2022/10/17 05:06:48;;;;;;;67.30;36.88;;;;;;;14.12;100.00;101682.28;4936890;29;20537;-84
2022/10/17 05:10:24;;;;;;;69.43;35.60;;;;;;;14.06;100.00;101677.56;4946394;29;20066;-80
2022/10/17 05:13:34;;;;;;;62.83;33.78;;;;;;;14.26;100.00;101681.69;4964848;23;20035;-81
2022/10/17 05:16:06;;;;;;;;;;;;;;;14.05;100.00;101681.25;4930124;29;20058;-80
2022/10/17 05:19:22;;;;;;;66.07;34.13;;;;;;;13.95;100.00;101684.00;4956198;29;19925;-82
2022/10/17 05:22:25;;;;;;;72.75;34.90;;;;;;;13.88;100.00;101680.28;4929502;29;20027;-81
2022/10/17 05:25:04;;;;;;;70.82;35.63;;;;;;;13.85;100.00;101673.41;4946998;29;20078;-82
2022/10/17 05:28:38;;;;;;;76.03;35.25;;;;;;;13.87;100.00;101679.44;4959875;29;20038;-82
2022/10/17 05:31:56;;;;;;;68.10;35.97;;;;;;;13.82;100.00;101684.38;4958781;29;20032;-82
2022/10/17 05:34:45;;;;;;;62.22;34.65;;;;;;;13.93;100.00;101689.47;4955919;29;20044;-82
2022/10/17 05:37:55;;;;;;;65.55;34.63;;;;;;;14.14;100.00;101690.94;4959154;29;20071;-84
2022/10/17 05:40:43;;;;;;;74.40;35.80;;;;;;;14.01;100.00;101687.88;4942890;29;20107;-82
2022/10/17 05:43:29;;;;;;;72.72;35.67;;;;;;;14.14;100.00;101693.63;4973079;23;20055;-81
2022/10/17 05:54:31;;;;;;;66.45;34.08;;;;;;;14.17;100.00;101695.97;4969313;23;20118;-88
2022/10/17 05:56:57;;;;;;;74.82;35.10;;;;;;;14.16;100.00;101704.94;4923584;29;20039;-88
2022/10/17 05:59:27;;;;;;;73.68;35.80;;;;;;;14.28;100.00;101709.06;4936420;29;20486;-89
2022/10/17 06:01:58;;;;;;;74.37;35.37;;;;;;;14.28;100.00;101706.38;4941156;29;20042;-88
2022/10/17 06:04:26;;;;;;;69.43;35.75;;;;;;;14.23;100.00;101706.84;4924724;29;20064;-87
2022/10/17 06:06:53;;;;;;;76.57;34.95;;;;;;;14.27;100.00;101705.53;4939697;29;20044;-90
2022/10/17 06:09:22;;;;;;;64.78;33.85;;;;;;;14.41;100.00;101714.84;4949157;28;20058;-90
2022/10/17 06:11:50;;;;;;;72.65;34.47;;;;;;;14.63;100.00;101708.94;4936748;29;20040;-92
2022/10/17 06:14:16;;;;;;;65.53;33.58;;;;;;;14.55;100.00;101716.88;4910583;29;20047;-89
2022/10/17 06:16:42;;;;;;;68.82;34.50;;;;;;;14.56;100.00;101723.91;4922530;29;20032;-90
2022/10/17 06:19:10;;;;;;;66.72;34.35;;;;;;;14.60;100.00;101729.75;4924659;29;20479;-92
2022/10/17 06:21:40;;;;;;;65.20;34.33;;;;;;;14.71;100.00;101734.84;4939743;29;20867;-93
2022/10/17 06:24:35;;;;;;;61.58;32.50;;;;;;;14.80;100.00;101747.22;4932582;29;20028;-91
2022/10/17 06:27:15;;;;;;;64.07;32.75;;;;;;;14.93;100.00;101748.44;4951777;29;20023;-92
2022/10/17 06:30:04;;;;;;;60.83;32.65;;;;;;;15.12;100.00;101757.19;4956606;29;20062;-92
2022/10/17 06:32:46;;;;;;;55.47;31.77;;;;;;;15.08;100.00;101755.84;4929606;29;20043;-89
2022/10/17 06:35:51;;;;;;;63.13;32.78;;;;;;;15.12;100.00;101762.53;4939397;29;20024;-93
2022/10/17 06:38:17;;;;;;;53.33;32.35;;;;;;;15.20;100.00;101759.91;4934726;29;20043;-92
2022/10/17 06:40:49;;;;;;;60.95;33.45;;;;;;;15.42;100.00;101756.63;4930940;29;20095;-90
2022/10/17 06:43:17;;;;;;;63.58;32.38;;;;;;;15.66;100.00;101751.34;4952349;29;20039;-89
2022/10/17 06:46:12;;;;;;;64.28;31.20;;;;;;;15.55;100.00;101764.19;4942782;29;20050;-93
2022/10/17 06:48:50;;;;;;;61.47;31.60;;;;;;;15.44;100.00;101765.31;4955925;29;20040;-89
2022/10/17 06:51:42;;;;;;;62.88;34.42;;;;;;;15.49;100.00;101768.34;4954495;29;20071;-90
2022/10/17 06:57:58;;;;;;;59.45;32.90;;;;;;;15.59;100.00;101771.72;4959146;29;20072;-89
2022/10/17 07:00:40;;;;;;;60.13;33.20;;;;;;;15.66;100.00;101780.75;4955510;29;20036;-91
2022/10/17 07:03:08;;;;;;;64.68;34.95;;;;;;;15.78;100.00;101781.25;4955285;29;20039;-91
2022/10/17 07:05:33;;;;;;;65.95;33.40;;;;;;;15.78;100.00;101778.59;4955132;29;20047;-92
2022/10/17 07:07:59;;;;;;;68.05;33.65;;;;;;;15.90;100.00;101774.59;4958471;29;20024;-92
2022/10/17 07:10:25;;;;;;;68.05;36.15;;;;;;;16.09;100.00;101776.09;4958709;29;20024;-88
2022/10/17 07:12:51;;;;;;;60.85;33.38;;;;;;;16.17;100.00;101787.66;4958406;29;20055;-87
2022/10/17 07:15:16;;;;;;;60.25;35.20;;;;;;;16.45;100.00;101793.47;4938602;29;20055;-90
2022/10/17 07:17:49;;;;;;;61.42;33.55;;;;;;;16.48;100.00;101790.44;4949614;29;20070;-87
2022/10/17 07:23:16;;;;;;;52.13;31.35;;;;;;;17.09;100.00;101794.34;4956952;29;20055;-89
2022/10/17 07:25:46;;;;;;;43.37;29.23;;;;;;;17.18;100.00;101793.28;4958185;29;20036;-88
2022/10/17 07:28:27;;;;;;;44.55;28.35;;;;;;;17.45;100.00;101806.22;4958796;29;20044;-87
2022/10/17 07:31:14;;;;;;;46.50;29.30;;;;;;;17.69;100.00;101807.97;4958983;29;20047;-88
2022/10/17 07:33:47;;;;;;;41.63;28.23;;;;;;;17.86;100.00;101806.88;4942731;29;20039;-89
2022/10/17 07:36:19;;;;;;;44.13;28.90;;;;;;;17.89;100.00;101815.38;4960011;29;20095;-87
2022/10/17 07:38:49;;;;;;;42.78;29.13;;;;;;;18.05;100.00;101815.28;4943680;29;20036;-90
2022/10/17 07:41:18;;;;;;;45.38;28.58;;;;;;;18.31;100.00;101819.41;4958691;29;20028;-90
2022/10/17 07:46:34;;;;;;;43.53;29.38;;;;;;;18.27;100.00;101812.72;4957690;29;20117;-91
2022/10/17 07:49:00;;;;;;;41.58;29.80;;;;;;;18.18;100.00;101819.19;4943729;29;20035;-89
2022/10/17 07:51:28;;;;;;;46.38;28.60;;;;;;;18.19;100.00;101824.38;4959443;29;20020;-89
2022/10/17 07:53:54;;;;;;;41.30;27.23;;;;;;;19.13;100.00;101822.94;4943429;29;20042;-88
2022/10/17 07:56:23;;;;;;;39.78;26.58;;;;;;;19.58;100.00;101830.81;4959691;29;20047;-91
2022/10/17 07:58:49;;;;;;;41.83;27.40;;;;;;;19.46;100.00;101832.31;4959640;29;20024;-89
2022/10/17 08:01:15;;;;;;;42.08;26.88;;;;;;;19.70;100.00;101834.69;4934767;29;20040;-88
2022/10/17 08:04:09;;;;;;;40.03;27.40;;;;;;;19.44;100.00;101829.81;4947527;29;20100;-89
2022/10/17 08:06:42;;;;;;;42.40;27.42;;;;;;;19.54;100.00;101840.28;4953424;29;20051;-88
2022/10/17 08:09:08;;;;;;;41.13;26.25;;;;;;;19.75;100.00;101843.03;4956477;29;20056;-91
2022/10/17 08:11:35;;;;;;;38.80;25.60;;;;;;;19.77;100.00;101840.97;4950273;29;20015;-89
2022/10/17 08:14:01;;;;;;;40.58;26.33;;;;;;;19.71;100.00;101839.03;4951973;29;20060;-89
2022/10/17 08:16:26;;;;;;;43.13;26.42;;;;;;;19.60;100.00;101842.22;4951564;29;20024;-88
2022/10/17 08:18:56;;;;;;;38.67;26.38;;;;;;;19.78;100.00;101849.88;4950875;29;20032;-89
2022/10/17 08:21:24;;;;;;;40.22;26.88;;;;;;;20.17;100.00;101850.28;4950195;29;20127;-89
2022/10/17 08:23:53;;;;;;;38.92;26.40;;;;;;;20.26;100.00;101851.81;4949128;29;20019;-89
2022/10/17 08:26:21;;;;;;;43.72;26.77;;;;;;;20.23;100.00;101845.97;4932198;29;20392;-90
2022/10/17 08:28:48;;;;;;;44.58;29.27;;;;;;;20.31;100.00;101852.13;4927715;29;20055;-91
2022/10/17 08:31:17;;;;;;;53.70;30.50;;;;;;;19.69;100.00;101848.34;4930804;29;20032;-90
2022/10/17 08:33:44;;;;;;;48.85;30.73;;;;;;;19.47;100.00;101845.59;4929325;29;20379;-91
2022/10/17 08:36:13;;;;;;;46.72;29.38;;;;;;;19.27;100.00;101846.31;4948566;29;20059;-90
2022/10/17 08:38:38;;;;;;;46.92;30.60;;;;;;;19.04;100.00;101844.56;4950085;29;20043;-89
2022/10/17 08:41:45;;;;;;;52.28;31.65;;;;;;;18.92;100.00;101840.69;4955149;29;20040;-90
2022/10/17 08:44:24;;;;;;;49.42;31.15;;;;;;;18.80;100.00;101839.44;4948962;29;20055;-92
2022/10/17 08:46:55;;;;;;;45.65;30.55;;;;;;;18.83;100.00;101841.75;4952027;29;20047;-90
2022/10/17 08:49:37;;;;;;;48.58;30.98;;;;;;;18.93;100.00;101838.81;4948568;29;20059;-93
2022/10/17 08:52:10;;;;;;;49.45;29.27;;;;;;;19.04;100.00;101841.88;4968732;28;20039;-88
2022/10/17 08:54:51;;;;;;;51.55;28.70;;;;;;;19.07;100.00;101849.56;4967011;29;20036;-93
2022/10/17 08:57:30;;;;;;;43.78;28.42;;;;;;;19.34;100.00;101849.91;4948200;29;20516;-91
2022/10/17 08:59:58;;;;;;;49.53;31.48;;;;;;;19.08;100.00;101845.88;4952749;29;20036;-89
2022/10/17 09:02:55;;;;;;;48.03;30.88;;;;;;;19.00;100.00;101843.25;4943444;29;20043;-88
2022/10/17 09:05:26;;;;;;;44.85;31.85;;;;;;;19.03;100.00;101842.88;4935291;29;20050;-89
2022/10/17 09:08:40;;;;;;;50.23;31.37;;;;;;;19.06;100.00;101847.88;4932173;29;20064;-90
2022/10/17 09:11:24;;;;;;;58.80;36.70;;;;;;;19.12;100.00;101850.88;4885910;29;20062;-90
2022/10/17 09:14:08;;;;;;;58.03;37.33;;;;;;;19.18;100.00;101844.75;4945215;29;20039;-91
2022/10/17 09:16:48;;;;;;;58.83;35.72;;;;;;;19.23;100.00;101845.00;4946247;29;20043;-89
2022/10/17 09:19:34;;;;;;;62.72;36.40;;;;;;;19.44;100.00;101850.50;4927688;29;20054;-90
2022/10/17 09:22:13;;;;;;;57.90;38.15;;;;;;;19.45;100.00;101846.81;4927050;29;20478;-86
2022/10/17 09:24:58;;;;;;;62.65;35.92;;;;;;;19.55;100.00;101852.72;4924498;29;20099;-90
2022/10/17 09:27:33;;;;;;;52.25;33.53;;;;;;;19.54;100.00;101848.34;4934022;29;20075;-88
2022/10/17 09:30:18;;;;;;;57.63;36.40;;;;;;;19.54;100.00;101856.41;4951950;29;20119;-88
2022/10/17 09:33:27;;;;;;;55.75;35.50;;;;;;;19.61;100.00;101860.03;4937993;29;20417;-89
2022/10/17 09:35:57;;;;;;;52.08;35.67;;;;;;;19.69;100.00;101854.53;4948898;29;20044;-92
2022/10/17 09:38:33;;;;;;;53.97;34.85;;;;;;;19.74;100.00;101851.28;4951045;29;20040;-88
2022/10/17 09:41:01;;;;;;;54.72;35.85;;;;;;;19.61;100.00;101857.34;4971372;23;20096;-90
2022/10/17 09:43:30;;;;;;;62.20;37.13;;;;;;;19.66;100.00;101849.53;4938305;29;20103;-88
2022/10/17 09:46:08;;;;;;;55.28;37.42;;;;;;;19.63;100.00;101849.06;4950387;29;20032;-88
2022/10/17 09:48:49;;;;;;;55.75;36.40;;;;;;;20.07;100.00;101842.53;4943023;29;20114;-89
2022/10/17 09:51:18;;;;;;;57.13;35.10;;;;;;;21.14;100.00;101835.13;4933724;29;20398;-91
2022/10/17 09:54:09;;;;;;;57.53;36.60;;;;;;;22.01;100.00;101849.56;4950988;29;20036;-89
2022/10/17 09:57:01;;;;;;;56.95;36.20;;;;;;;22.79;100.00;101853.38;4953484;29;20038;-87
2022/10/17 09:59:37;;;;;;;51.53;34.17;;;;;;;23.61;100.00;101855.44;4947466;29;20039;-90
2022/10/17 10:02:11;;;;;;;52.67;34.42;;;;;;;24.35;100.00;101863.78;4949695;29;20074;-90
2022/10/17 10:04:52;;;;;;;55.38;34.53;;;;;;;24.42;100.00;101869.16;4943683;29;20058;-93
2022/10/17 10:07:19;;;;;;;57.70;35.72;;;;;;;24.45;100.00;101871.41;4942175;29;20043;-89
2022/10/17 10:09:46;;;;;;;54.72;35.42;;;;;;;24.79;98.88;101856.53;4937187;29;20138;-90
2022/10/17 10:12:28;;;;;;;55.80;35.47;;;;;;;24.80;99.57;101859.00;4940143;29;20036;-91
2022/10/17 10:14:54;;;;;;;55.70;34.60;;;;;;;25.43;95.04;101864.19;4940008;29;20064;-90
2022/10/17 10:17:34;;;;;;;56.30;32.80;;;;;;;26.11;89.89;101873.75;4950510;29;20046;-87
2022/10/17 10:20:00;;;;;;;50.40;33.75;;;;;;;25.93;90.54;101876.50;4940696;28;20032;-90
2022/10/17 10:22:27;;;;;;;51.15;34.20;;;;;;;25.37;94.18;101868.66;4941132;29;20114;-90
2022/10/17 10:25:11;;;;;;;56.95;35.05;;;;;;;25.52;92.92;101862.88;4909071;29;20196;-91
2022/10/17 10:27:39;;;;;;;52.60;35.10;;;;;;;25.74;91.36;101874.91;4921454;29;20043;-91
2022/10/17 10:30:05;;;;;;;58.05;36.45;;;;;;;25.38;94.33;101872.19;4940917;29;20036;-92
2022/10/17 10:32:36;;;;;;;58.50;35.42;;;;;;;24.90;97.33;101859.34;4941086;29;20421;-91
2022/10/17 10:35:07;;;;;;;63.95;35.58;;;;;;;23.82;100.00;101862.44;4935525;29;20032;-89
2022/10/17 10:37:51;;;;;;;59.30;36.50;;;;;;;23.16;100.00;101860.81;4938401;29;20043;-90
2022/10/17 10:40:17;;;;;;;63.42;39.08;;;;;;;22.44;100.00;101857.28;4941882;29;20388;-92
2022/10/17 10:42:57;;;;;;;67.28;40.70;;;;;;;21.84;100.00;101859.03;4944219;29;20426;-92
2022/10/17 10:45:38;;;;;;;66.57;40.83;;;;;;;21.64;100.00;101844.69;4944487;29;20039;-90
2022/10/17 10:48:32;;;;;;;59.55;38.70;;;;;;;21.77;100.00;101852.81;4959373;29;20039;-91
2022/10/17 10:51:12;;;;;;;69.00;44.67;;;;;;;21.54;100.00;101847.75;4973088;28;20046;-91
2022/10/17 10:54:01;;;;;;;77.18;45.63;;;;;;;21.61;100.00;101847.75;4968569;29;20501;-91
2022/10/17 10:56:42;;;;;;;73.78;42.67;;;;;;;21.51;100.00;101850.03;4945268;28;20036;-93
2022/10/17 10:59:18;;;;;;;68.10;43.10;;;;;;;21.57;100.00;101849.22;4927442;29;20054;-93
2022/10/17 11:02:22;;;;;;;71.90;44.28;;;;;;;21.64;100.00;101847.38;4939242;29;20040;-92
2022/10/17 11:05:13;;;;;;;71.25;44.97;;;;;;;21.80;100.00;101841.63;4851156;29;20116;-91
2022/10/17 11:07:46;;;;;;;72.65;45.28;;;;;;;21.80;100.00;101836.22;4896102;29;20056;-90
2022/10/17 11:10:30;;;;;;;;;;;;;;;21.93;100.00;101840.84;4910401;29;20044;-92
2022/10/17 11:13:22;;;;;;;77.95;47.05;;;;;;;21.52;100.00;101833.63;4901970;29;19914;-93
2022/10/17 11:16:26;;;;;;;92.40;48.40;;;;;;;21.52;100.00;101832.78;4938679;29;20044;-93
2022/10/17 11:19:24;;;;;;;73.65;45.38;;;;;;;21.44;100.00;101825.69;4955718;29;20027;-91
2022/10/17 11:21:54;;;;;;;74.35;46.85;;;;;;;21.55;100.00;101830.53;4958332;29;20055;-91
2022/10/17 11:24:28;;;;;;;85.10;47.25;;;;;;;21.69;100.00;101826.00;4952684;29;20505;-89
2022/10/17 11:26:56;;;;;;;75.57;45.15;;;;;;;21.54;100.00;101819.94;4942123;29;20043;-93
2022/10/17 11:29:29;;;;;;;75.45;44.58;;;;;;;21.86;100.00;101824.59;4942953;29;20036;-91
2022/10/17 11:31:59;;;;;;;78.82;47.75;;;;;;;21.74;100.00;101820.84;4942566;29;20059;-91
2022/10/17 11:34:28;;;;;;;87.13;47.60;;;;;;;21.55;100.00;101816.19;4918537;29;20032;-91
2022/10/17 11:37:01;;;;;;;79.68;46.97;;;;;;;21.63;100.00;101816.03;4924650;29;20561;-91
2022/10/17 11:39:47;;;;;;;70.80;45.03;;;;;;;21.77;100.00;101817.75;4936814;29;20044;-91
2022/10/17 11:42:35;;;;;;;75.57;45.42;;;;;;;21.98;100.00;101811.34;4939134;29;20044;-88
2022/10/17 11:45:10;;;;;;;84.18;46.40;;;;;;;21.94;100.00;101810.13;4926476;29;20044;-88
2022/10/17 11:47:53;;;;;;;76.22;45.42;;;;;;;21.95;100.00;101815.31;4939527;29;20039;-93
2022/10/17 11:50:36;;;;;;;75.15;44.85;;;;;;;22.00;100.00;101810.13;4925677;29;20501;-93
2022/10/17 11:53:24;;;;;;;80.88;45.85;;;;;;;22.51;100.00;101806.78;4946141;29;20075;-94
2022/10/17 11:55:59;;;;;;;75.72;45.50;;;;;;;22.25;100.00;101804.09;4941208;29;20115;-92
2022/10/17 11:59:12;;;;;;;74.00;44.83;;;;;;;21.89;100.00;101802.63;4955782;23;20064;-95